| time (UTC) | temp C | wind direction | speed KPH | gust KPH | rain 1hr cm | rain 24hr cm | rain mn cm | humidity % | barometer mb |
| 20260508132203 | 12 | 330 | 4.8 | 16.1 | 0.05 | 0.05 | 0.05 | 85 | 1016.3 |
| 20260508131203 | 12 | 306 | 3.2 | 11.3 | 0.05 | 0.05 | 0.05 | 85 | 1016.4 |
| 20260508130202 | 12 | 333 | 3.2 | 9.7 | 0.05 | 0.05 | 0.05 | 86 | 1016.2 |
| 20260508125201 | 12 | 304 | 3.2 | 6.4 | 0.05 | 0.05 | 0.05 | 83 | 1016.1 |
| 20260508124203 | 13 | 263 | 3.2 | 11.3 | 0.03 | 0.03 | 0.05 | 78 | 1016.0 |
| 20260508123202 | 14 | 302 | 4.8 | 12.9 | 0.00 | 0.00 | 0.00 | 70 | 1015.9 |
| 20260508122202 | 15 | 195 | 3.2 | 11.3 | 0.00 | 0.00 | 0.00 | 69 | 1015.8 |
| 20260508115201 | 14 | 213 | 4.8 | 14.5 | 0.00 | 0.00 | 0.00 | 68 | 1015.9 |
| 20260508114203 | 14 | 189 | 6.4 | 12.9 | 0.00 | 0.00 | 0.00 | 70 | 1015.8 |
| 20260508113202 | 15 | 220 | 4.8 | 12.9 | 0.00 | 0.00 | 0.00 | 69 | 1015.8 |
| 20260508112202 | 14 | 143 | 4.8 | 14.5 | 0.00 | 0.00 | 0.00 | 73 | 1015.7 |
| 20260508111202 | 13 | 232 | 4.8 | 12.9 | 0.00 | 0.00 | 0.00 | 79 | 1015.7 |
| 20260508110203 | 13 | 142 | 1.6 | 8.0 | 0.00 | 0.00 | 0.00 | 79 | 1015.7 |
| 20260508105203 | 13 | 164 | 4.8 | 9.7 | 0.00 | 0.00 | 0.00 | 79 | 1015.8 |
| 20260508104203 | 13 | 117 | 3.2 | 12.9 | 0.00 | 0.00 | 0.00 | 83 | 1015.8 |
| 20260508103201 | 12 | 135 | 3.2 | 8.0 | 0.00 | 0.00 | 0.00 | 86 | 1015.8 |
| 20260508102202 | 11 | 182 | 4.8 | 9.7 | 0.00 | 0.00 | 0.00 | 84 | 1015.8 |
| 20260508101203 | 11 | 144 | 4.8 | 9.7 | 0.00 | 0.00 | 0.00 | 84 | 1015.8 |
| 20260508100204 | 11 | 186 | 6.4 | 17.7 | 0.00 | 0.00 | 0.00 | 81 | 1015.7 |
| 20260508094202 | 12 | 152 | 4.8 | 11.3 | 0.00 | 0.00 | 0.00 | 81 | 1015.6 |
| 20260508093204 | 12 | 142 | 4.8 | 14.5 | 0.00 | 0.00 | 0.00 | 81 | 1015.4 |
| 20260508092204 | 12 | 153 | 6.4 | 14.5 | 0.00 | 0.00 | 0.00 | 81 | 1015.3 |
| 20260508091203 | 12 | 148 | 8.0 | 17.7 | 0.00 | 0.00 | 0.00 | 82 | 1015.3 |
| 20260508090204 | 12 | 144 | 6.4 | 14.5 | 0.00 | 0.00 | 0.00 | 80 | 1015.3 |
| 20260508085203 | 12 | 205 | 8.0 | 17.7 | 0.00 | 0.00 | 0.00 | 80 | 1015.2 |
| 20260508084205 | 12 | 170 | 6.4 | 14.5 | 0.00 | 0.00 | 0.00 | 81 | 1015.1 |
| 20260508082202 | 12 | 166 | 4.8 | 11.3 | 0.00 | 0.00 | 0.00 | 81 | 1014.9 |
| 20260508081204 | 12 | 169 | 3.2 | 11.3 | 0.00 | 0.00 | 0.00 | 81 | 1014.9 |
| 20260508080202 | 12 | 216 | 3.2 | 8.0 | 0.00 | 0.00 | 0.00 | 81 | 1014.8 |
| 20260508075202 | 12 | 179 | 3.2 | 8.0 | 0.00 | 0.00 | 0.00 | 84 | 1014.8 |
| 20260508074204 | 12 | 212 | 1.6 | 6.4 | 0.00 | 0.00 | 0.00 | 85 | 1014.7 |
| 20260508072202 | 11 | 179 | 0.0 | 3.2 | 0.00 | 0.00 | 0.00 | 86 | 1014.6 |
| 20260508071203 | 11 | 179 | 0.0 | 3.2 | 0.00 | 0.00 | 0.00 | 86 | 1014.4 |
| 20260508065202 | 11 | 179 | 0.0 | 1.6 | 0.00 | 0.00 | 0.00 | 87 | 1014.2 |
| 20260508063201 | 11 | 179 | 0.0 | 0.0 | 0.00 | 0.00 | 0.00 | 87 | 1014.1 |
| 20260508062205 | 11 | 179 | 0.0 | 0.0 | 0.00 | 0.00 | 0.00 | 88 | 1014.0 |
| 20260508061203 | 11 | 179 | 0.0 | 0.0 | 0.00 | 0.00 | 0.00 | 88 | 1013.9 |
| 20260508060202 | 10 | 179 | 0.0 | 1.6 | 0.00 | 0.00 | 0.00 | 88 | 1013.9 |
| 20260508055203 | 10 | 179 | 0.0 | 1.6 | 0.00 | 0.00 | 0.00 | 87 | 1013.8 |
| 20260508054204 | 10 | 179 | 1.6 | 3.2 | 0.00 | 0.00 | 0.00 | 87 | 1013.6 |
| 20260508053203 | 10 | 179 | 0.0 | 3.2 | 0.00 | 0.00 | 0.00 | 87 | 1013.5 |
| 20260508052203 | 10 | 179 | 0.0 | 3.2 | 0.00 | 0.00 | 0.00 | 87 | 1013.3 |
| 20260508051158 | 10 | 179 | 1.6 | 3.2 | 0.00 | 0.00 | 0.00 | 87 | 1013.2 |
| 20260508050155 | 10 | 179 | 1.6 | 4.8 | 0.00 | 0.00 | 0.00 | 86 | 1013.2 |
| 20260508044155 | 10 | 139 | 1.6 | 8.0 | 0.00 | 0.00 | 0.00 | 85 | 1013.1 |
| 20260508043152 | 10 | 160 | 3.2 | 9.7 | 0.00 | 0.00 | 0.00 | 85 | 1013.0 |
| 20260508042153 | 10 | 150 | 3.2 | 9.7 | 0.00 | 0.00 | 0.00 | 85 | 1012.9 |
| 20260508041151 | 10 | 187 | 4.8 | 11.3 | 0.00 | 0.00 | 0.00 | 84 | 1012.9 |
| 20260508040150 | 10 | 188 | 6.4 | 16.1 | 0.00 | 0.00 | 0.00 | 84 | 1012.9 |
| 20260508035148 | 10 | 196 | 4.8 | 14.5 | 0.00 | 0.00 | 0.00 | 83 | 1012.8 |
| 20260508034148 | 10 | 190 | 6.4 | 16.1 | 0.00 | 0.00 | 0.00 | 83 | 1012.8 |
| 20260508033210 | 10 | 163 | 3.2 | 9.7 | 0.00 | 0.00 | 0.00 | 82 | 1012.8 |
| 20260508031148 | 10 | 213 | 4.8 | 11.3 | 0.00 | 0.00 | 0.00 | 82 | 1012.9 |
| 20260508030202 | 10 | 170 | 3.2 | 9.7 | 0.00 | 0.00 | 0.00 | 82 | 1012.9 |
| 20260508023159 | 10 | 202 | 4.8 | 11.3 | 0.00 | 0.00 | 0.00 | 81 | 1012.8 |
| 20260508021147 | 10 | 197 | 4.8 | 9.7 | 0.00 | 0.00 | 0.00 | 81 | 1012.7 |
| 20260508020159 | 10 | 201 | 4.8 | 9.7 | 0.00 | 0.00 | 0.00 | 81 | 1012.7 |
| 20260508015146 | 10 | 185 | 4.8 | 14.5 | 0.00 | 0.00 | 0.00 | 81 | 1012.8 |
| 20260508013147 | 10 | 173 | 6.4 | 14.5 | 0.00 | 0.00 | 0.00 | 81 | 1012.8 |
| 20260508012145 | 10 | 177 | 6.4 | 14.5 | 0.00 | 0.00 | 0.00 | 81 | 1012.9 |
| 20260508011145 | 10 | 194 | 3.2 | 11.3 | 0.00 | 0.00 | 0.00 | 81 | 1012.8 |
| 20260508010146 | 10 | 113 | 3.2 | 11.3 | 0.00 | 0.00 | 0.00 | 80 | 1012.8 |
| 20260508004139 | 10 | 167 | 4.8 | 11.3 | 0.00 | 0.00 | 0.00 | 81 | 1012.9 |
| 20260508003139 | 9 | 140 | 3.2 | 6.4 | 0.00 | 0.00 | 0.00 | 82 | 1012.9 |
| 20260508002139 | 9 | 120 | 3.2 | 9.7 | 0.00 | 0.00 | 0.00 | 81 | 1013.0 |
| 20260508001139 | 10 | 100 | 1.6 | 4.8 | 0.00 | 0.00 | 0.00 | 79 | 1013.0 |
| 20260507235139 | 10 | 165 | 1.6 | 3.2 | 0.00 | 0.00 | 0.00 | 76 | 1012.9 |
| 20260507234139 | 10 | 165 | 3.2 | 9.7 | 0.00 | 0.00 | 0.00 | 77 | 1012.9 |
| 20260507233140 | 10 | 138 | 3.2 | 8.0 | 0.00 | 0.00 | 0.00 | 77 | 1012.8 |
| 20260507232139 | 10 | 216 | 4.8 | 14.5 | 0.00 | 0.00 | 0.00 | 78 | 1012.7 |
| 20260507231139 | 10 | 138 | 6.4 | 14.5 | 0.00 | 0.00 | 0.00 | 78 | 1012.7 |
| 20260507230140 | 10 | 159 | 4.8 | 12.9 | 0.00 | 0.00 | 0.00 | 78 | 1012.6 |
| 20260507225139 | 10 | 171 | 3.2 | 9.7 | 0.00 | 0.00 | 0.00 | 78 | 1012.7 |
| 20260507224134 | 10 | 135 | 4.8 | 9.7 | 0.00 | 0.00 | 0.00 | 77 | 1012.6 |
| 20260507223134 | 10 | 225 | 3.2 | 9.7 | 0.00 | 0.00 | 0.00 | 77 | 1012.7 |
| 20260507222136 | 10 | 176 | 4.8 | 11.3 | 0.00 | 0.00 | 0.00 | 76 | 1012.7 |
| 20260507220134 | 11 | 158 | 4.8 | 11.3 | 0.00 | 0.00 | 0.00 | 76 | 1012.7 |
| 20260507214134 | 11 | 150 | 4.8 | 9.7 | 0.00 | 0.00 | 0.00 | 74 | 1012.7 |
| 20260507205130 | 11 | 194 | 3.2 | 8.0 | 0.00 | 0.00 | 0.00 | 72 | 1012.8 |
| 20260507204130 | 11 | 165 | 3.2 | 9.7 | 0.00 | 0.00 | 0.00 | 72 | 1012.8 |
| 20260507203129 | 11 | 184 | 3.2 | 11.3 | 0.00 | 0.00 | 0.00 | 72 | 1012.7 |
| 20260507202131 | 11 | 165 | 3.2 | 9.7 | 0.00 | 0.00 | 0.00 | 71 | 1012.7 |
| 20260507201132 | 11 | 128 | 4.8 | 9.7 | 0.00 | 0.00 | 0.00 | 71 | 1012.6 |
| 20260507200130 | 12 | 212 | 3.2 | 16.1 | 0.00 | 0.00 | 0.00 | 70 | 1012.5 |
| 20260507195130 | 12 | 159 | 6.4 | 16.1 | 0.00 | 0.00 | 0.00 | 70 | 1012.4 |
| 20260507193129 | 12 | 171 | 6.4 | 17.7 | 0.00 | 0.00 | 0.00 | 69 | 1012.2 |
| 20260507192131 | 12 | 196 | 6.4 | 14.5 | 0.00 | 0.00 | 0.00 | 69 | 1012.2 |
| 20260507191130 | 12 | 154 | 6.4 | 14.5 | 0.00 | 0.00 | 0.00 | 70 | 1012.3 |
| 20260507184129 | 12 | 175 | 6.4 | 16.1 | 0.00 | 0.00 | 0.00 | 70 | 1012.3 |
| 20260507182130 | 12 | 177 | 6.4 | 16.1 | 0.00 | 0.00 | 0.00 | 70 | 1012.2 |
| 20260507181124 | 12 | 194 | 6.4 | 16.1 | 0.00 | 0.00 | 0.00 | 70 | 1012.1 |
| 20260507180123 | 12 | 167 | 6.4 | 14.5 | 0.00 | 0.00 | 0.00 | 70 | 1012.2 |
| 20260507173123 | 12 | 176 | 6.4 | 16.1 | 0.00 | 0.00 | 0.00 | 70 | 1012.3 |
| 20260507172123 | 12 | 200 | 8.0 | 19.3 | 0.00 | 0.00 | 0.00 | 70 | 1012.2 |
| 20260507171123 | 12 | 175 | 8.0 | 20.9 | 0.00 | 0.00 | 0.00 | 70 | 1012.1 |
| 20260507170123 | 12 | 148 | 8.0 | 24.1 | 0.00 | 0.00 | 0.00 | 69 | 1012.3 |
| 20260507165123 | 13 | 130 | 8.0 | 20.9 | 0.00 | 0.00 | 0.00 | 67 | 1012.3 |
| 20260507164123 | 13 | 223 | 9.7 | 22.5 | 0.00 | 0.00 | 0.00 | 66 | 1012.3 |
| 20260507163123 | 13 | 182 | 8.0 | 19.3 | 0.00 | 0.00 | 0.00 | 66 | 1012.2 |
| 20260507162125 | 13 | 182 | 8.0 | 19.3 | 0.00 | 0.00 | 0.00 | 67 | 1012.3 |
| 20260507161123 | 13 | 236 | 9.7 | 22.5 | 0.00 | 0.00 | 0.00 | 67 | 1012.3 |
| 20260507160123 | 13 | 179 | 11.3 | 22.5 | 0.00 | 0.00 | 0.00 | 66 | 1012.3 |
| 20260507155123 | 14 | 198 | 9.7 | 19.3 | 0.00 | 0.00 | 0.00 | 63 | 1012.3 |
| 20260507154123 | 14 | 156 | 9.7 | 24.1 | 0.00 | 0.00 | 0.00 | 63 | 1012.4 |
| 20260507153125 | 13 | 188 | 11.3 | 24.1 | 0.00 | 0.00 | 0.00 | 64 | 1012.4 |
| 20260507152123 | 13 | 178 | 11.3 | 22.5 | 0.00 | 0.00 | 0.00 | 63 | 1012.5 |
| 20260507150124 | 14 | 194 | 9.7 | 24.1 | 0.00 | 0.00 | 0.00 | 62 | 1012.5 |
| 20260507145123 | 13 | 156 | 11.3 | 25.7 | 0.00 | 0.00 | 0.00 | 62 | 1012.5 |
| 20260507144123 | 13 | 191 | 9.7 | 25.7 | 0.00 | 0.00 | 0.00 | 63 | 1012.5 |
| 20260507143123 | 13 | 132 | 11.3 | 25.7 | 0.00 | 0.00 | 0.00 | 64 | 1012.6 |
| 20260507142124 | 14 | 210 | 9.7 | 27.4 | 0.00 | 0.00 | 0.00 | 63 | 1012.7 |
| 20260507141118 | 14 | 168 | 8.0 | 19.3 | 0.00 | 0.00 | 0.00 | 65 | 1012.7 |
| 20260507140118 | 13 | 126 | 9.7 | 22.5 | 0.00 | 0.00 | 0.00 | 62 | 1012.7 |
| 20260507135119 | 13 | 226 | 8.0 | 25.7 | 0.00 | 0.00 | 0.00 | 62 | 1012.8 |
| 20260507133119 | 13 | 235 | 9.7 | 22.5 | 0.00 | 0.00 | 0.00 | 61 | 1012.8 |